sensor_id;sensor_type;location;lat;lon;timestamp;pressure;altitude;pressure_sealevel;temperature;humidity
21520;BME280;10921;53.614;9.882;2023-04-01T00:01:54;99234.91;;;12.17;94.16
21520;BME280;10921;53.614;9.882;2023-04-01T00:04:20;99288.50;;;12.52;94.42
21520;BME280;10921;53.614;9.882;2023-04-01T00:06:47;99222.72;;;12.15;94.30
21520;BME280;10921;53.614;9.882;2023-04-01T00:09:14;99283.09;;;12.45;94.34
21520;BME280;10921;53.614;9.882;2023-04-01T00:11:40;99272.97;;;12.41;94.05
21520;BME280;10921;53.614;9.882;2023-04-01T00:14:07;99261.25;;;12.42;94.28
21520;BME280;10921;53.614;9.882;2023-04-01T00:16:34;99306.72;;;12.63;94.29
21520;BME280;10921;53.614;9.882;2023-04-01T00:19:00;99249.09;;;12.18;94.10
21520;BME280;10921;53.614;9.882;2023-04-01T00:21:27;99258.91;;;12.32;94.29
21520;BME280;10921;53.614;9.882;2023-04-01T00:23:53;99295.75;;;12.58;94.37
21520;BME280;10921;53.614;9.882;2023-04-01T00:26:21;99311.06;;;12.64;94.46
21520;BME280;10921;53.614;9.882;2023-04-01T00:28:48;99260.38;;;12.35;94.26
21520;BME280;10921;53.614;9.882;2023-04-01T00:31:15;99321.75;;;12.64;94.50
21520;BME280;10921;53.614;9.882;2023-04-01T00:33:43;99292.63;;;12.54;94.32
21520;BME280;10921;53.614;9.882;2023-04-01T00:36:14;99318.25;;;12.63;94.67
21520;BME280;10921;53.614;9.882;2023-04-01T00:38:42;99309.59;;;12.61;94.40
21520;BME280;10921;53.614;9.882;2023-04-01T00:41:10;99311.25;;;12.62;94.40
21520;BME280;10921;53.614;9.882;2023-04-01T00:43:42;99299.22;;;12.52;94.48
21520;BME280;10921;53.614;9.882;2023-04-01T00:46:09;99309.50;;;12.55;94.43
21520;BME280;10921;53.614;9.882;2023-04-01T00:48:38;99306.09;;;12.61;94.56
21520;BME280;10921;53.614;9.882;2023-04-01T00:51:32;99314.56;;;12.64;95.77
21520;BME280;10921;53.614;9.882;2023-04-01T00:54:01;99316.16;;;12.59;94.35
21520;BME280;10921;53.614;9.882;2023-04-01T00:56:32;99313.47;;;12.59;94.37
21520;BME280;10921;53.614;9.882;2023-04-01T00:59:02;99290.94;;;12.47;94.65
21520;BME280;10921;53.614;9.882;2023-04-01T01:01:30;99305.94;;;12.69;95.27
21520;BME280;10921;53.614;9.882;2023-04-01T01:03:57;99296.91;;;12.49;94.07
21520;BME280;10921;53.614;9.882;2023-04-01T01:09:47;99320.84;;;12.57;95.80
21520;BME280;10921;53.614;9.882;2023-04-01T01:12:25;99304.03;;;12.42;94.46
21520;BME280;10921;53.614;9.882;2023-04-01T01:21:06;99312.78;;;12.50;96.15
21520;BME280;10921;53.614;9.882;2023-04-01T01:26:51;99324.50;;;12.49;96.28
21520;BME280;10921;53.614;9.882;2023-04-01T01:37:29;99322.38;;;12.45;94.94
21520;BME280;10921;53.614;9.882;2023-04-01T01:40:01;99312.44;;;12.39;95.22
21520;BME280;10921;53.614;9.882;2023-04-01T01:42:30;99316.59;;;12.41;94.92
21520;BME280;10921;53.614;9.882;2023-04-01T01:44:58;99322.38;;;12.45;94.94
21520;BME280;10921;53.614;9.882;2023-04-01T01:47:27;99322.38;;;12.45;95.14
21520;BME280;10921;53.614;9.882;2023-04-01T01:49:55;99323.59;;;12.42;95.26
21520;BME280;10921;53.614;9.882;2023-04-01T01:52:23;99326.72;;;12.46;95.15
21520;BME280;10921;53.614;9.882;2023-04-01T01:54:52;99325.69;;;12.47;95.22
21520;BME280;10921;53.614;9.882;2023-04-01T01:57:23;99256.34;;;12.03;95.27
21520;BME280;10921;53.614;9.882;2023-04-01T01:59:56;99286.91;;;12.15;95.53
21520;BME280;10921;53.614;9.882;2023-04-01T02:02:25;99333.00;;;12.38;95.09
21520;BME280;10921;53.614;9.882;2023-04-01T02:04:52;99310.81;;;12.23;95.29
21520;BME280;10921;53.614;9.882;2023-04-01T02:07:25;99329.22;;;12.47;95.55
21520;BME280;10921;53.614;9.882;2023-04-01T02:09:54;99339.91;;;12.47;95.23
21520;BME280;10921;53.614;9.882;2023-04-01T02:12:22;99331.63;;;12.42;95.31
21520;BME280;10921;53.614;9.882;2023-04-01T02:14:53;99331.88;;;12.47;95.64
21520;BME280;10921;53.614;9.882;2023-04-01T02:17:24;99337.22;;;12.47;95.58
21520;BME280;10921;53.614;9.882;2023-04-01T02:19:58;99330.03;;;12.48;95.89
21520;BME280;10921;53.614;9.882;2023-04-01T02:22:32;99324.78;;;12.40;95.91
21520;BME280;10921;53.614;9.882;2023-04-01T02:25:09;99299.13;;;12.24;96.25
21520;BME280;10921;53.614;9.882;2023-04-01T02:27:38;99294.91;;;12.15;95.36
21520;BME280;10921;53.614;9.882;2023-04-01T02:30:08;99341.75;;;12.47;95.71
21520;BME280;10921;53.614;9.882;2023-04-01T02:32:36;99339.00;;;12.40;95.43
21520;BME280;10921;53.614;9.882;2023-04-01T02:35:16;99343.59;;;12.46;95.47
21520;BME280;10921;53.614;9.882;2023-04-01T02:37:43;99308.81;;;12.25;95.06
21520;BME280;10921;53.614;9.882;2023-04-01T02:40:13;99339.41;;;12.37;95.48
21520;BME280;10921;53.614;9.882;2023-04-01T02:42:40;99284.13;;;12.08;95.20
21520;BME280;10921;53.614;9.882;2023-04-01T02:45:07;99290.59;;;12.14;95.35
21520;BME280;10921;53.614;9.882;2023-04-01T02:47:34;99328.81;;;12.29;95.31
21520;BME280;10921;53.614;9.882;2023-04-01T02:50:01;99350.97;;;12.44;95.42
21520;BME280;10921;53.614;9.882;2023-04-01T02:52:29;99348.50;;;12.43;95.41
21520;BME280;10921;53.614;9.882;2023-04-01T02:54:56;99342.69;;;12.39;95.43
21520;BME280;10921;53.614;9.882;2023-04-01T02:57:23;99359.13;;;12.36;95.27
21520;BME280;10921;53.614;9.882;2023-04-01T02:59:50;99362.00;;;12.35;95.54
21520;BME280;10921;53.614;9.882;2023-04-01T03:02:17;99366.03;;;12.45;95.49
21520;BME280;10921;53.614;9.882;2023-04-01T03:04:44;99320.28;;;12.19;95.36
21520;BME280;10921;53.614;9.882;2023-04-01T03:07:11;99365.19;;;12.45;95.47
21520;BME280;10921;53.614;9.882;2023-04-01T03:09:38;99331.38;;;12.22;95.35
21520;BME280;10921;53.614;9.882;2023-04-01T03:12:06;99352.13;;;12.35;95.40
21520;BME280;10921;53.614;9.882;2023-04-01T03:14:32;99336.13;;;12.20;95.42
21520;BME280;10921;53.614;9.882;2023-04-01T03:16:59;99338.84;;;12.27;95.55
21520;BME280;10921;53.614;9.882;2023-04-01T03:19:25;99343.84;;;12.30;95.59
21520;BME280;10921;53.614;9.882;2023-04-01T03:21:52;99378.75;;;12.43;95.36
21520;BME280;10921;53.614;9.882;2023-04-01T03:24:19;99378.56;;;12.45;95.56
21520;BME280;10921;53.614;9.882;2023-04-01T03:26:46;99298.28;;;12.02;95.34
21520;BME280;10921;53.614;9.882;2023-04-01T03:29:13;99308.13;;;12.02;95.31
21520;BME280;10921;53.614;9.882;2023-04-01T03:31:41;99334.47;;;12.19;95.35
21520;BME280;10921;53.614;9.882;2023-04-01T03:34:08;99313.53;;;12.08;95.19
21520;BME280;10921;53.614;9.882;2023-04-01T03:36:35;99347.91;;;12.26;95.37
21520;BME280;10921;53.614;9.882;2023-04-01T03:39:02;99365.31;;;12.37;95.47
21520;BME280;10921;53.614;9.882;2023-04-01T03:41:31;99342.31;;;12.21;95.21
21520;BME280;10921;53.614;9.882;2023-04-01T03:43:58;99380.59;;;12.43;95.39
21520;BME280;10921;53.614;9.882;2023-04-01T03:46:24;99348.22;;;12.16;95.45
21520;BME280;10921;53.614;9.882;2023-04-01T03:48:51;99385.94;;;12.43;95.50
21520;BME280;10921;53.614;9.882;2023-04-01T03:51:17;99352.34;;;12.19;95.52
21520;BME280;10921;53.614;9.882;2023-04-01T03:53:44;99372.16;;;12.24;95.64
21520;BME280;10921;53.614;9.882;2023-04-01T03:56:11;99372.59;;;12.28;95.55
21520;BME280;10921;53.614;9.882;2023-04-01T03:58:40;99386.97;;;12.42;95.82
21520;BME280;10921;53.614;9.882;2023-04-01T04:01:20;99391.94;;;12.45;96.86
21520;BME280;10921;53.614;9.882;2023-04-01T04:03:49;99390.00;;;12.39;95.51
21520;BME280;10921;53.614;9.882;2023-04-01T04:06:18;99397.84;;;12.40;95.57
21520;BME280;10921;53.614;9.882;2023-04-01T04:08:46;99396.00;;;12.41;95.39
21520;BME280;10921;53.614;9.882;2023-04-01T04:11:12;99356.41;;;12.15;95.28
21520;BME280;10921;53.614;9.882;2023-04-01T04:13:39;99413.25;;;12.38;95.40
21520;BME280;10921;53.614;9.882;2023-04-01T04:16:06;99385.97;;;12.28;95.38
21520;BME280;10921;53.614;9.882;2023-04-01T04:18:33;99364.16;;;12.10;95.43
21520;BME280;10921;53.614;9.882;2023-04-01T04:21:00;99406.44;;;12.36;95.56
21520;BME280;10921;53.614;9.882;2023-04-01T04:23:27;99403.50;;;12.30;95.49
21520;BME280;10921;53.614;9.882;2023-04-01T04:28:26;99382.97;;;12.16;95.61
21520;BME280;10921;53.614;9.882;2023-04-01T04:30:53;99409.50;;;12.32;95.78
21520;BME280;10921;53.614;9.882;2023-04-01T04:33:21;99383.97;;;12.15;95.81
21520;BME280;10921;53.614;9.882;2023-04-01T04:35:48;99414.00;;;12.32;95.70
21520;BME280;10921;53.614;9.882;2023-04-01T04:38:15;99299.16;;;11.58;95.76
21520;BME280;10921;53.614;9.882;2023-04-01T04:40:42;99429.22;;;12.31;95.88
21520;BME280;10921;53.614;9.882;2023-04-01T04:43:11;99428.41;;;12.31;95.96
21520;BME280;10921;53.614;9.882;2023-04-01T04:45:37;99443.81;;;12.29;95.77
21520;BME280;10921;53.614;9.882;2023-04-01T04:48:07;99432.47;;;12.27;96.14
21520;BME280;10921;53.614;9.882;2023-04-01T04:50:34;99408.59;;;12.11;95.97
21520;BME280;10921;53.614;9.882;2023-04-01T04:53:02;99383.06;;;11.93;95.96
21520;BME280;10921;53.614;9.882;2023-04-01T04:55:28;99408.34;;;12.06;96.12
21520;BME280;10921;53.614;9.882;2023-04-01T04:57:55;99401.53;;;12.03;96.24
21520;BME280;10921;53.614;9.882;2023-04-01T05:00:21;99441.69;;;12.24;96.44
21520;BME280;10921;53.614;9.882;2023-04-01T05:02:48;99434.78;;;12.15;96.21
21520;BME280;10921;53.614;9.882;2023-04-01T05:05:17;99452.78;;;12.21;95.34
21520;BME280;10921;53.614;9.882;2023-04-01T05:07:43;99452.84;;;12.13;94.35
21520;BME280;10921;53.614;9.882;2023-04-01T05:10:10;99445.78;;;12.06;93.54
21520;BME280;10921;53.614;9.882;2023-04-01T05:12:36;99442.34;;;11.82;92.52
21520;BME280;10921;53.614;9.882;2023-04-01T05:15:05;99429.41;;;11.71;92.35
21520;BME280;10921;53.614;9.882;2023-04-01T05:17:32;99440.25;;;11.55;91.65
21520;BME280;10921;53.614;9.882;2023-04-01T05:19:59;99451.59;;;11.57;91.60
21520;BME280;10921;53.614;9.882;2023-04-01T05:22:26;99448.91;;;11.42;91.53
21520;BME280;10921;53.614;9.882;2023-04-01T05:24:52;99439.78;;;11.14;91.39
21520;BME280;10921;53.614;9.882;2023-04-01T05:27:19;99450.81;;;11.11;91.38
21520;BME280;10921;53.614;9.882;2023-04-01T05:29:46;99388.44;;;10.66;91.56
21520;BME280;10921;53.614;9.882;2023-04-01T05:32:12;99391.97;;;10.58;91.87
21520;BME280;10921;53.614;9.882;2023-04-01T05:34:39;99456.50;;;10.85;91.79
21520;BME280;10921;53.614;9.882;2023-04-01T05:37:05;99507.47;;;10.98;91.75
21520;BME280;10921;53.614;9.882;2023-04-01T05:39:37;99508.34;;;10.90;92.29
21520;BME280;10921;53.614;9.882;2023-04-01T05:42:07;99499.38;;;10.83;92.76
21520;BME280;10921;53.614;9.882;2023-04-01T05:44:35;99460.94;;;10.39;92.54
21520;BME280;10921;53.614;9.882;2023-04-01T05:47:03;99507.75;;;10.72;92.64
21520;BME280;10921;53.614;9.882;2023-04-01T05:49:30;99523.47;;;10.67;93.02
21520;BME280;10921;53.614;9.882;2023-04-01T05:51:57;99447.03;;;10.20;93.16
21520;BME280;10921;53.614;9.882;2023-04-01T05:54:23;99520.66;;;10.61;93.31
21520;BME280;10921;53.614;9.882;2023-04-01T05:56:50;99512.56;;;10.46;93.16
21520;BME280;10921;53.614;9.882;2023-04-01T05:59:16;99438.59;;;9.84;93.35
21520;BME280;10921;53.614;9.882;2023-04-01T06:01:43;99494.28;;;10.27;93.33
21520;BME280;10921;53.614;9.882;2023-04-01T06:04:14;99484.16;;;10.14;93.15
21520;BME280;10921;53.614;9.882;2023-04-01T06:06:42;99499.81;;;10.17;93.30
21520;BME280;10921;53.614;9.882;2023-04-01T06:09:27;99542.09;;;10.36;94.49
21520;BME280;10921;53.614;9.882;2023-04-01T06:14:51;99546.94;;;10.25;93.28
21520;BME280;10921;53.614;9.882;2023-04-01T06:23:35;99557.63;;;10.16;94.20
21520;BME280;10921;53.614;9.882;2023-04-01T06:26:20;99493.25;;;9.64;94.19
21520;BME280;10921;53.614;9.882;2023-04-01T06:29:12;99568.28;;;10.08;93.64
21520;BME280;10921;53.614;9.882;2023-04-01T06:32:09;99586.13;;;10.08;94.54
21520;BME280;10921;53.614;9.882;2023-04-01T06:43:12;99595.59;;;9.94;94.04
21520;BME280;10921;53.614;9.882;2023-04-01T06:46:03;99590.13;;;9.87;94.12
21520;BME280;10921;53.614;9.882;2023-04-01T06:48:54;99562.84;;;9.61;93.83
21520;BME280;10921;53.614;9.882;2023-04-01T06:54:21;99606.94;;;9.72;94.02
21520;BME280;10921;53.614;9.882;2023-04-01T06:56:56;99614.94;;;9.72;93.38
21520;BME280;10921;53.614;9.882;2023-04-01T06:59:33;99534.34;;;9.21;94.13
21520;BME280;10921;53.614;9.882;2023-04-01T07:02:10;99636.41;;;9.70;93.61
21520;BME280;10921;53.614;9.882;2023-04-01T07:04:44;99570.31;;;9.41;93.30
21520;BME280;10921;53.614;9.882;2023-04-01T07:09:59;99629.22;;;9.63;92.74
21520;BME280;10921;53.614;9.882;2023-04-01T07:15:02;99560.13;;;9.12;92.54
21520;BME280;10921;53.614;9.882;2023-04-01T07:17:33;99644.88;;;9.58;92.94
21520;BME280;10921;53.614;9.882;2023-04-01T07:20:13;99633.38;;;9.41;93.56
21520;BME280;10921;53.614;9.882;2023-04-01T07:22:45;99664.34;;;9.50;92.52
21520;BME280;10921;53.614;9.882;2023-04-01T07:25:21;99650.03;;;9.51;93.01
21520;BME280;10921;53.614;9.882;2023-04-01T07:27:50;99621.84;;;9.24;92.58
21520;BME280;10921;53.614;9.882;2023-04-01T07:30:18;99666.50;;;9.46;92.54
21520;BME280;10921;53.614;9.882;2023-04-01T07:32:55;99665.00;;;9.44;92.54
21520;BME280;10921;53.614;9.882;2023-04-01T07:35:31;99671.31;;;9.43;92.86
21520;BME280;10921;53.614;9.882;2023-04-01T07:41:12;99649.78;;;9.20;93.69
21520;BME280;10921;53.614;9.882;2023-04-01T07:46:59;99673.31;;;9.41;93.43
21520;BME280;10921;53.614;9.882;2023-04-01T07:52:15;99695.97;;;9.45;91.88
21520;BME280;10921;53.614;9.882;2023-04-01T07:55:14;99705.25;;;9.49;93.21
21520;BME280;10921;53.614;9.882;2023-04-01T07:57:52;99636.09;;;9.07;92.63
21520;BME280;10921;53.614;9.882;2023-04-01T08:00:27;99678.59;;;9.25;91.54
21520;BME280;10921;53.614;9.882;2023-04-01T08:03:25;99717.09;;;9.46;92.36
21520;BME280;10921;53.614;9.882;2023-04-01T08:06:03;99726.72;;;9.39;90.96
21520;BME280;10921;53.614;9.882;2023-04-01T08:12:04;99729.16;;;9.33;90.46
21520;BME280;10921;53.614;9.882;2023-04-01T08:14:56;99741.66;;;9.32;91.34
21520;BME280;10921;53.614;9.882;2023-04-01T08:18:05;99720.50;;;9.23;91.48
21520;BME280;10921;53.614;9.882;2023-04-01T08:21:00;99758.63;;;9.31;91.37
21520;BME280;10921;53.614;9.882;2023-04-01T08:23:36;99725.94;;;9.13;91.23
21520;BME280;10921;53.614;9.882;2023-04-01T08:26:08;99753.25;;;9.23;90.56
21520;BME280;10921;53.614;9.882;2023-04-01T08:28:54;99718.56;;;8.99;91.37
21520;BME280;10921;53.614;9.882;2023-04-01T08:31:40;99759.25;;;9.25;91.83
21520;BME280;10921;53.614;9.882;2023-04-01T08:34:16;99735.84;;;9.03;90.66
21520;BME280;10921;53.614;9.882;2023-04-01T08:36:53;99757.03;;;9.12;91.03
21520;BME280;10921;53.614;9.882;2023-04-01T08:39:31;99783.75;;;9.29;90.91
21520;BME280;10921;53.614;9.882;2023-04-01T08:50:58;99796.94;;;9.38;91.12
21520;BME280;10921;53.614;9.882;2023-04-01T08:56:27;99778.22;;;9.22;90.33
21520;BME280;10921;53.614;9.882;2023-04-01T09:08:01;99814.09;;;9.44;89.86
21520;BME280;10921;53.614;9.882;2023-04-01T09:19:18;99831.09;;;9.51;89.76
21520;BME280;10921;53.614;9.882;2023-04-01T09:27:28;99843.47;;;9.60;89.92
21520;BME280;10921;53.614;9.882;2023-04-01T09:40:57;99857.84;;;9.75;88.65
21520;BME280;10921;53.614;9.882;2023-04-01T09:43:39;99871.34;;;9.74;87.44
21520;BME280;10921;53.614;9.882;2023-04-01T09:46:22;99842.59;;;9.51;87.21
21520;BME280;10921;53.614;9.882;2023-04-01T09:49:12;99846.97;;;9.61;87.55
21520;BME280;10921;53.614;9.882;2023-04-01T09:52:07;99887.34;;;9.82;88.05
21520;BME280;10921;53.614;9.882;2023-04-01T10:12:02;99903.75;;;9.69;85.18
21520;BME280;10921;53.614;9.882;2023-04-01T10:20:30;99926.13;;;9.76;86.36
21520;BME280;10921;53.614;9.882;2023-04-01T10:28:46;99925.44;;;9.74;85.49
21520;BME280;10921;53.614;9.882;2023-04-01T10:31:41;99934.63;;;9.80;86.91
21520;BME280;10921;53.614;9.882;2023-04-01T10:34:55;99939.78;;;9.81;85.10
21520;BME280;10921;53.614;9.882;2023-04-01T10:53:46;99965.69;;;10.23;84.59
21520;BME280;10921;53.614;9.882;2023-04-01T10:56:32;99963.03;;;10.31;84.63
21520;BME280;10921;53.614;9.882;2023-04-01T11:07:41;99973.75;;;10.47;84.75
21520;BME280;10921;53.614;9.882;2023-04-01T11:19:09;99985.22;;;10.32;81.77
21520;BME280;10921;53.614;9.882;2023-04-01T11:24:46;99984.59;;;10.12;82.17
21520;BME280;10921;53.614;9.882;2023-04-01T11:36:00;100024.38;;;10.05;81.56
21520;BME280;10921;53.614;9.882;2023-04-01T11:38:54;100024.84;;;10.01;81.80
21520;BME280;10921;53.614;9.882;2023-04-01T11:41:40;100027.34;;;10.02;82.34
21520;BME280;10921;53.614;9.882;2023-04-01T11:44:26;99957.78;;;9.53;82.98
21520;BME280;10921;53.614;9.882;2023-04-01T11:52:42;100039.88;;;9.84;81.87
21520;BME280;10921;53.614;9.882;2023-04-01T11:55:23;100057.16;;;9.80;82.40
21520;BME280;10921;53.614;9.882;2023-04-01T12:03:32;100057.22;;;9.62;82.60
21520;BME280;10921;53.614;9.882;2023-04-01T12:06:05;100067.09;;;9.52;82.17
21520;BME280;10921;53.614;9.882;2023-04-01T12:11:38;100039.06;;;9.22;82.24
21520;BME280;10921;53.614;9.882;2023-04-01T12:17:39;100060.19;;;9.24;82.73
21520;BME280;10921;53.614;9.882;2023-04-01T12:32:14;100114.66;;;9.29;82.53
21520;BME280;10921;53.614;9.882;2023-04-01T12:37:34;100140.22;;;9.22;81.40
21520;BME280;10921;53.614;9.882;2023-04-01T12:42:42;100134.88;;;9.22;81.85
21520;BME280;10921;53.614;9.882;2023-04-01T13:08:08;100169.56;;;8.85;81.48
21520;BME280;10921;53.614;9.882;2023-04-01T13:10:52;100190.56;;;8.78;81.00
21520;BME280;10921;53.614;9.882;2023-04-01T13:27:25;100147.31;;;8.30;81.60
21520;BME280;10921;53.614;9.882;2023-04-01T13:30:04;100204.91;;;8.68;80.98
21520;BME280;10921;53.614;9.882;2023-04-01T13:32:47;100126.25;;;8.09;81.15
21520;BME280;10921;53.614;9.882;2023-04-01T13:35:28;100211.44;;;8.73;80.54
21520;BME280;10921;53.614;9.882;2023-04-01T13:38:16;100213.13;;;8.74;81.08
21520;BME280;10921;53.614;9.882;2023-04-01T13:40:54;100184.53;;;8.39;80.79
21520;BME280;10921;53.614;9.882;2023-04-01T13:43:59;100222.78;;;8.75;81.33
21520;BME280;10921;53.614;9.882;2023-04-01T13:52:07;100230.06;;;8.73;81.55
21520;BME280;10921;53.614;9.882;2023-04-01T14:12:06;100271.06;;;8.80;79.14
21520;BME280;10921;53.614;9.882;2023-04-01T14:31:34;100294.97;;;8.90;78.11
21520;BME280;10921;53.614;9.882;2023-04-01T14:34:30;100297.91;;;8.97;78.87
21520;BME280;10921;53.614;9.882;2023-04-01T14:40:26;100310.81;;;8.92;77.32
21520;BME280;10921;53.614;9.882;2023-04-01T14:48:23;100287.47;;;8.66;76.59
21520;BME280;10921;53.614;9.882;2023-04-01T14:50:54;100313.22;;;8.75;76.84
21520;BME280;10921;53.614;9.882;2023-04-01T14:56:01;100342.91;;;8.80;76.80
21520;BME280;10921;53.614;9.882;2023-04-01T14:58:45;100336.03;;;8.78;76.75
21520;BME280;10921;53.614;9.882;2023-04-01T15:06:56;100356.75;;;8.74;76.40
21520;BME280;10921;53.614;9.882;2023-04-01T15:12:24;100355.94;;;8.64;76.26
21520;BME280;10921;53.614;9.882;2023-04-01T15:15:22;100329.50;;;8.34;77.17
21520;BME280;10921;53.614;9.882;2023-04-01T15:18:18;100364.59;;;8.47;77.38
21520;BME280;10921;53.614;9.882;2023-04-01T15:21:11;100348.34;;;8.40;78.24
21520;BME280;10921;53.614;9.882;2023-04-01T15:23:55;100372.59;;;8.47;78.60
21520;BME280;10921;53.614;9.882;2023-04-01T15:29:28;100400.84;;;8.48;78.66
21520;BME280;10921;53.614;9.882;2023-04-01T15:37:42;100400.22;;;8.16;79.12
21520;BME280;10921;53.614;9.882;2023-04-01T15:40:30;100424.97;;;8.26;78.88
21520;BME280;10921;53.614;9.882;2023-04-01T15:56:25;100453.59;;;8.03;78.13
21520;BME280;10921;53.614;9.882;2023-04-01T16:01:57;100458.91;;;8.03;78.61
21520;BME280;10921;53.614;9.882;2023-04-01T16:07:49;100468.25;;;7.97;77.16
21520;BME280;10921;53.614;9.882;2023-04-01T16:18:54;100493.25;;;7.85;77.65
21520;BME280;10921;53.614;9.882;2023-04-01T16:21:51;100489.28;;;7.80;77.13
21520;BME280;10921;53.614;9.882;2023-04-01T16:24:41;100488.41;;;7.69;77.20
21520;BME280;10921;53.614;9.882;2023-04-01T16:27:18;100516.84;;;7.79;77.57
21520;BME280;10921;53.614;9.882;2023-04-01T16:29:51;100473.41;;;7.59;77.45
21520;BME280;10921;53.614;9.882;2023-04-01T16:35:23;100511.78;;;7.75;78.31
21520;BME280;10921;53.614;9.882;2023-04-01T16:37:55;100494.19;;;7.54;77.60
21520;BME280;10921;53.614;9.882;2023-04-01T16:40:42;100479.44;;;7.40;77.98
21520;BME280;10921;53.614;9.882;2023-04-01T16:43:28;100512.69;;;7.65;77.20
21520;BME280;10921;53.614;9.882;2023-04-01T16:46:21;100534.38;;;7.49;76.87
21520;BME280;10921;53.614;9.882;2023-04-01T16:54:55;100571.19;;;7.54;78.05
21520;BME280;10921;53.614;9.882;2023-04-01T16:57:28;100557.97;;;7.43;78.10
21520;BME280;10921;53.614;9.882;2023-04-01T17:02:51;100528.78;;;7.11;77.81
21520;BME280;10921;53.614;9.882;2023-04-01T17:05:37;100551.66;;;7.23;77.85
21520;BME280;10921;53.614;9.882;2023-04-01T17:08:47;100561.56;;;7.21;78.13
21520;BME280;10921;53.614;9.882;2023-04-01T17:11:26;100600.94;;;7.36;76.66
21520;BME280;10921;53.614;9.882;2023-04-01T17:14:17;100600.94;;;7.36;77.22
21520;BME280;10921;53.614;9.882;2023-04-01T17:16:54;100561.41;;;7.01;76.72
21520;BME280;10921;53.614;9.882;2023-04-01T17:25:03;100632.22;;;7.33;76.36
21520;BME280;10921;53.614;9.882;2023-04-01T17:30:35;100618.25;;;7.20;76.10
21520;BME280;10921;53.614;9.882;2023-04-01T17:33:42;100648.16;;;7.33;76.31
21520;BME280;10921;53.614;9.882;2023-04-01T17:36:27;100655.63;;;7.28;75.65
21520;BME280;10921;53.614;9.882;2023-04-01T17:50:36;100670.75;;;7.16;75.44
21520;BME280;10921;53.614;9.882;2023-04-01T17:53:29;100682.22;;;7.17;75.45
21520;BME280;10921;53.614;9.882;2023-04-01T18:09:23;100719.34;;;7.17;75.66
21520;BME280;10921;53.614;9.882;2023-04-01T18:12:00;100726.34;;;7.18;75.62
21520;BME280;10921;53.614;9.882;2023-04-01T18:14:51;100728.41;;;7.14;75.14
21520;BME280;10921;53.614;9.882;2023-04-01T18:22:36;100756.50;;;7.05;74.45
21520;BME280;10921;53.614;9.882;2023-04-01T18:30:55;100773.63;;;7.01;74.48
21520;BME280;10921;53.614;9.882;2023-04-01T18:36:36;100754.31;;;6.77;74.34
21520;BME280;10921;53.614;9.882;2023-04-01T18:39:11;100800.41;;;6.98;74.17
21520;BME280;10921;53.614;9.882;2023-04-01T18:42:15;100798.22;;;6.92;74.38
21520;BME280;10921;53.614;9.882;2023-04-01T18:44:53;100813.16;;;6.93;74.11
21520;BME280;10921;53.614;9.882;2023-04-01T18:47:45;100818.47;;;6.93;74.30
21520;BME280;10921;53.614;9.882;2023-04-01T18:55:59;100784.31;;;6.55;73.63
21520;BME280;10921;53.614;9.882;2023-04-01T18:58:33;100838.84;;;6.82;73.55
21520;BME280;10921;53.614;9.882;2023-04-01T19:01:33;100837.47;;;6.76;73.77
21520;BME280;10921;53.614;9.882;2023-04-01T19:09:27;100839.72;;;6.58;72.75
21520;BME280;10921;53.614;9.882;2023-04-01T19:12:03;100819.09;;;6.40;72.87
21520;BME280;10921;53.614;9.882;2023-04-01T19:17:16;100873.41;;;6.69;73.02
21520;BME280;10921;53.614;9.882;2023-04-01T19:25:15;100896.31;;;6.70;72.37
21520;BME280;10921;53.614;9.882;2023-04-01T19:27:50;100888.41;;;6.57;71.45
21520;BME280;10921;53.614;9.882;2023-04-01T19:30:31;100910.75;;;6.66;71.39
21520;BME280;10921;53.614;9.882;2023-04-01T19:36:11;100831.59;;;6.14;70.72
21520;BME280;10921;53.614;9.882;2023-04-01T19:38:48;100911.56;;;6.55;70.00
21520;BME280;10921;53.614;9.882;2023-04-01T19:44:04;100928.72;;;6.39;67.84
21520;BME280;10921;53.614;9.882;2023-04-01T19:52:00;100936.63;;;6.15;68.41
21520;BME280;10921;53.614;9.882;2023-04-01T19:54:37;100951.38;;;6.06;68.73
21520;BME280;10921;53.614;9.882;2023-04-01T19:57:13;100959.56;;;6.03;68.90
21520;BME280;10921;53.614;9.882;2023-04-01T19:59:53;100927.81;;;5.78;69.47
21520;BME280;10921;53.614;9.882;2023-04-01T20:02:33;100974.31;;;5.94;69.58
21520;BME280;10921;53.614;9.882;2023-04-01T20:16:18;100960.75;;;5.61;70.63
21520;BME280;10921;53.614;9.882;2023-04-01T20:21:30;101016.63;;;5.82;71.26
21520;BME280;10921;53.614;9.882;2023-04-01T20:26:47;101023.31;;;5.75;70.67
21520;BME280;10921;53.614;9.882;2023-04-01T20:29:41;101030.31;;;5.63;68.69
21520;BME280;10921;53.614;9.882;2023-04-01T20:34:50;101038.38;;;5.49;67.78
21520;BME280;10921;53.614;9.882;2023-04-01T20:45:53;101060.84;;;5.16;68.26
21520;BME280;10921;53.614;9.882;2023-04-01T20:51:06;101069.31;;;4.94;68.15
21520;BME280;10921;53.614;9.882;2023-04-01T20:53:43;101017.34;;;4.54;69.00
21520;BME280;10921;53.614;9.882;2023-04-01T21:01:39;101091.03;;;4.73;69.30
21520;BME280;10921;53.614;9.882;2023-04-01T21:04:27;101054.75;;;4.34;69.38
21520;BME280;10921;53.614;9.882;2023-04-01T21:07:14;101094.75;;;4.56;69.82
21520;BME280;10921;53.614;9.882;2023-04-01T21:12:34;101098.72;;;4.35;70.77
21520;BME280;10921;53.614;9.882;2023-04-01T21:26:38;101137.31;;;4.23;71.99
21520;BME280;10921;53.614;9.882;2023-04-01T21:32:24;101145.41;;;4.06;72.32
21520;BME280;10921;53.614;9.882;2023-04-01T22:00:38;101190.19;;;3.63;74.08
21520;BME280;10921;53.614;9.882;2023-04-01T22:08:56;101208.06;;;3.58;74.14
21520;BME280;10921;53.614;9.882;2023-04-01T22:14:24;101224.16;;;3.53;73.88
21520;BME280;10921;53.614;9.882;2023-04-01T22:16:57;101174.25;;;3.19;73.93
21520;BME280;10921;53.614;9.882;2023-04-01T22:22:29;101153.44;;;2.99;74.20
21520;BME280;10921;53.614;9.882;2023-04-01T22:25:30;101225.09;;;3.37;74.13
21520;BME280;10921;53.614;9.882;2023-04-01T22:28:08;101241.69;;;3.39;74.33
21520;BME280;10921;53.614;9.882;2023-04-01T22:30:42;101219.00;;;3.21;74.22
21520;BME280;10921;53.614;9.882;2023-04-01T22:33:26;101251.59;;;3.35;74.25